• Join FlightAware (Why Join?)
  • Login
  • US Flag 
11:05PM EDT


 

Airport Tracker/Info


-or-


 

Live Flight TrackerFlight Track Log ✈ SWA3943 ✈ 30-Apr-2013 ✈ KCMH - KBWI

Flight Track Log - Related Links

Times and Time Zones

All times are in EDT time to prevent confusion due to time zone crossing. See the SWA3943 flight status page for this flight to view local times or setup timezone preferences in your user account.

Time Position Orientation Groundspeed Altitude Reporting Facility
EDT Latitude Longitude Course Direction KTS MPH feet Rate Location/Type
08:25PM 39.9908 -82.8353 99° East 171 197 2,700  Level Indianapolis Center
08:25PM 39.9903 -82.8069 91° East 184 212 3,500 2,340 Climbing Indianapolis Center
08:26PM 39.9914 -82.7208 89° East 229 264 6,200 3,120 Climbing Indianapolis Center
08:27PM 39.9886 -82.6194 92° East 274 315 10,000 3,420 Climbing Indianapolis Center
08:28PM 39.9892 -82.4858 90° East 319 367 13,300 3,300 Climbing Indianapolis Center
08:29PM 39.9922 -82.3600 88° East 343 395 16,800 2,820 Climbing Indianapolis Center
08:30PM 39.9950 -82.2278 88° East 358 412 19,100 1,620 Climbing Indianapolis Center
08:32PM 39.9983 -82.0822 88° East 395 455 20,200 1,020 Climbing Indianapolis Center
08:33PM 40.0011 -81.9347 89° East 403 464 21,200 1,320 Climbing Indianapolis Center
08:34PM 40.0050 -81.7853 88° East 408 470 23,000 1,920 Climbing Indianapolis Center
08:35PM 39.9978 -81.6406 94° East 402 463 25,200 2,220 Climbing Indianapolis Center
08:36PM 39.9800 -81.4939 99° East 406 467 27,600 1,800 Climbing Indianapolis Center
08:37PM 39.9597 -81.3275 99° East 411 473 29,000 660 Climbing Indianapolis Center
08:38PM 39.9400 -81.1703 99° East 427 491 29,000  Level Indianapolis Center
08:38PM 39.9347 -81.1003 96° East 429 494 29,000  Level Cleveland Center
08:39PM 39.9144 -80.9375 99° East 436 502 29,000  Level Cleveland Center
08:40PM 39.8919 -80.7753 100° East 449 517 29,000  Level Cleveland Center
08:41PM 39.8692 -80.6100 100° East 454 522 29,000  Level Cleveland Center
08:42PM 39.8503 -80.4478 99° East 454 522 29,000  Level Cleveland Center
08:43PM 39.8269 -80.2831 100° East 454 522 29,000  Level Cleveland Center
08:45PM 39.7944 -80.0342 100° East 436 502 29,000  Level Washington Center
08:46PM 39.7731 -79.8733 100° East 436 502 29,000  Level Washington Center
08:47PM 39.7494 -79.7128 101° East 441 507 29,000  Level Washington Center
08:48PM 39.7300 -79.5525 99° East 451 519 29,000  Level Washington Center
08:49PM 39.7058 -79.3919 101° East 451 519 29,000 -780 Level Washington Center
08:50PM 39.6839 -79.2289 100° East 451 519 27,500 -2,040 Descending Washington Center
08:51PM 39.6633 -79.0797 100° East 443 510 25,000 -1,320 Descending Washington Center
08:52PM 39.6242 -78.9161 107° East 427 491 25,000  Level Washington Center
08:53PM 39.5928 -78.7667 105° East 427 491 25,000 -540 Level Washington Center
08:54PM 39.5569 -78.6142 107° East 432 497 24,000 -1,680 Descending Washington Center
08:55PM 39.5253 -78.4675 106° East 432 497 21,700 -2,580 Descending Washington Center
08:56PM 39.4931 -78.3239 106° East 425 489 18,900 -2,880 Descending Washington Center
08:57PM 39.4608 -78.1828 106° East 420 483 16,000 -1,980 Descending Washington Center
08:58PM 39.4492 -78.0425 96° East 412 474 15,000 -540 Descending Washington Center
08:59PM 39.4478 -77.9056 91° East 396 456 15,000  Level Washington Center
09:00PM 39.4481 -77.7686 90° East 385 443 15,000 -480 Level Washington Center
09:01PM 39.4464 -77.6314 91° East 385 443 14,100 -1,620 Descending Washington Center
09:02PM 39.4464 -77.4969 90° East 379 436 11,800 -1,620 Descending Washington Center
09:03PM 39.4461 -77.3842 90° East 350 403 11,000 -660 Descending Washington Center
09:03PM 39.4500 -77.3500 82° East 295 339 11,000 -420 Level Potomac TRACON
09:04PM 39.4500 -77.2500 90° East 292 336 10,500 -1,260 Descending Potomac TRACON
09:05PM 39.4000 -77.1833 134° Southeast 282 325 8,600 -2,040 Descending Potomac TRACON
09:06PM 39.3500 -77.1167 134° Southeast 269 310 6,500 -2,040 Descending Potomac TRACON
09:07PM 39.3000 -77.0500 134° Southeast 255 293 4,800 -1,320 Descending Potomac TRACON
09:08PM 39.2667 -77.0000 131° Southeast 215 247 4,000 -660 Descending Potomac TRACON
09:09PM 39.2167 -76.9500 142° Southeast 169 194 3,500 -540 Descending Potomac TRACON
09:10PM 39.2000 -76.9167 123° Southeast 160 184 3,000 -480 Descending Potomac TRACON
09:11PM 39.1833 -76.8667 113° Southeast 155 178 2,700 -600 Descending Potomac TRACON
09:12PM 39.1833 -76.8000 90° East 151 174 1,900 -720 Descending Potomac TRACON
09:13PM 39.1833 -76.7500 90° East 113 130 1,200 -600 Descending Potomac TRACON
09:14PM 39.1833 -76.7167 90° East 115 132 700 -600 Descending Potomac TRACON
09:16PM 39.1667 -76.6667 98° East  Level FlightAware Approximate
09:23PM 39.1754 -76.6683 98° East  Level Estimated
09:24PM 39.1754 -76.6683 98° East  Level Estimated
09:25PM 39.1754 -76.6683 98° East  Level Estimated
09:26PM 39.1754 -76.6683 98° East  Level Estimated